Alexandria, LA

3:57 PM CST on March 01, 2015 (GMT -0600)
Fort Polk | Change Station
CLOSE
Current Station
Airport
Location: Fort Polk,
Elevation: 305 ft
Nearby Weather Stations

Elev 305 ft 31.02 °N, 92.91 °W | Updated 3 minutes ago

Rain
Rain
62 °F
Feels Like 62 °F
N
4
Wind Variable Wind from Variable

Today
High -- | Low -- °F
--% Chance of Precip.
Yesterday
High -- | Low -- °F
Precip. -- in
6:36 AM 6:07 PM
Waxing Gibbous, 87% visible
Pressure 30.28 in
Visibility 1.8 miles
Clouds Overcast 300 ft
Dew Point 58 °F
Humidity 86%
Rainfall 1.53 in
Snow Depth Not available.
UV 1 out of 12
Pollen 7.00 out of 12
Air Quality Not available.
Flu Activity Not available.
METAR KBKB 012154Z AUTO VRB03KT 1 3/4SM -RA BR OVC003 17/14 A3019 RMK AO2 SLP252 P0009 T01670144 $

More Conditions Fewer Conditions

Pressure 30.28 in
Visibility 1.8 miles
Clouds Overcast 300 ft
Dew Point 58 °F
Humidity 86%
Rainfall 1.53 in
Snow Depth Not available.
UV 1 out of 12
Pollen 7.00 out of 12
Air Quality Not available.
Flu Activity Not available.
METAR KBKB 012154Z AUTO VRB03KT 1 3/4SM -RA BR OVC003 17/14 A3019 RMK AO2 SLP252 P0009 T01670144 $

More Conditions Fewer Conditions

10-Day Weather Forecast

Almanac

Astronomy

Mar. 01, 2015 Rise Set
Actual Time
Civil Twilight
Nautical Twilight
Astronomical Twilight
Moon
Length of Visible Light
Length of Day
Tomorrow will be .
, % of the Moon is Illuminated

Today's Extremes

State Highs State Lows

Community

WunderPhotos

Upload Photos

1,801,577 photos uploaded!

WunderBlogs® & News

Nearby

Air Quality

  Air Quality AQ Index Pollutant
Not available.

Snow Depth

Station Depth Elevation

Earthquake Activity

City Distance Mag. Time & Date
Minimum magnitude displayed is 2.5.

Coastal Water Temperatures

Place Temperature

Nearby Weather Stations